Time;durP1;ratioP1;P1;durP2;ratioP2;P2;SDS_P1;SDS_P2;PMS_P1;PMS_P2;Temp;Humidity;BMP_temperature;BMP_pressure;BME280_temperature;BME280_humidity;BME280_pressure;Samples;Min_cycle;Max_cycle;Signal;HPM_P1;HPM_P2
2022/10/30 00:02:24;;;;;;;15.98;6.70;;;;;;;15.21;91.88;101596.28;5091111;28;20024;-70
2022/10/30 00:04:50;;;;;;;12.63;6.82;;;;;;;15.18;91.97;101595.88;5091365;28;20028;-70
2022/10/30 00:07:15;;;;;;;14.27;6.57;;;;;;;15.17;91.99;101600.44;5091024;28;20024;-70
2022/10/30 00:09:40;;;;;;;14.02;7.10;;;;;;;15.14;92.17;101595.44;5091202;28;20032;-70
2022/10/30 00:12:06;;;;;;;12.38;6.25;;;;;;;15.17;92.24;101602.25;5073190;28;20403;-70
2022/10/30 00:14:31;;;;;;;13.73;6.82;;;;;;;15.14;92.52;101600.81;5091007;28;20039;-70
2022/10/30 00:16:56;;;;;;;14.63;5.95;;;;;;;15.12;92.27;101603.75;5091100;28;20039;-70
2022/10/30 00:19:22;;;;;;;16.77;6.90;;;;;;;15.08;92.37;101607.84;5090890;28;20654;-70
2022/10/30 00:21:48;;;;;;;16.42;6.70;;;;;;;15.08;92.65;101607.03;5073102;28;20159;-70
2022/10/30 00:24:14;;;;;;;15.43;6.88;;;;;;;15.04;92.62;101611.19;5072975;28;20093;-70
2022/10/30 00:26:39;;;;;;;19.70;7.38;;;;;;;15.02;92.77;101602.50;5090711;28;20600;-70
2022/10/30 00:29:05;;;;;;;17.25;8.15;;;;;;;15.01;92.85;101607.06;5090840;28;20032;-70
2022/10/30 00:31:30;;;;;;;15.82;7.78;;;;;;;15.01;92.99;101607.06;5090646;28;20076;-70
2022/10/30 00:33:55;;;;;;;15.73;6.35;;;;;;;15.02;92.97;101605.19;5090544;28;20036;-70
2022/10/30 00:36:21;;;;;;;20.65;6.93;;;;;;;14.98;92.90;101617.38;5090078;28;20186;-70
2022/10/30 00:38:47;;;;;;;18.10;6.97;;;;;;;14.95;93.10;101607.03;5089834;28;20059;-70
2022/10/30 00:41:15;;;;;;;15.95;6.60;;;;;;;14.98;92.98;101607.44;5070788;28;20118;-70
2022/10/30 00:43:40;;;;;;;17.98;6.50;;;;;;;14.96;93.29;101598.78;5071195;28;20098;-70
2022/10/30 00:46:31;;;;;;;15.02;6.50;;;;;;;14.97;93.21;101602.31;5070998;28;20418;-70
2022/10/30 00:49:04;;;;;;;15.90;6.30;;;;;;;14.97;93.56;101602.31;5070984;28;20538;-70
2022/10/30 00:51:31;;;;;;;15.73;6.82;;;;;;;14.98;93.32;101588.66;5070968;28;20054;-70
2022/10/30 00:53:59;;;;;;;14.05;5.60;;;;;;;15.00;93.47;101596.50;5070841;28;20064;-70
2022/10/30 00:56:24;;;;;;;10.93;5.53;;;;;;;15.01;93.37;101595.47;5070914;28;20040;-70
2022/10/30 00:58:55;;;;;;;16.80;6.03;;;;;;;14.98;93.29;101588.66;5070843;28;20028;-70
2022/10/30 01:01:24;;;;;;;13.10;6.47;;;;;;;14.98;93.13;101591.31;5070762;28;20494;-70
2022/10/30 01:03:54;;;;;;;13.93;6.53;;;;;;;14.94;93.10;101592.78;5070833;28;20099;-70
2022/10/30 01:06:21;;;;;;;16.55;7.20;;;;;;;14.93;93.09;101596.50;5070506;28;20482;-70
2022/10/30 01:08:48;;;;;;;13.57;6.35;;;;;;;14.92;93.45;101597.53;5070649;28;20029;-70
2022/10/30 01:11:13;;;;;;;14.10;6.60;;;;;;;14.88;93.54;101591.78;5070503;28;20055;-70
2022/10/30 01:13:41;;;;;;;14.85;6.32;;;;;;;14.89;93.40;101593.41;5068852;28;20028;-70
2022/10/30 01:16:19;;;;;;;18.08;6.32;;;;;;;14.89;93.37;101597.97;5070202;28;20213;-70
2022/10/30 01:18:50;;;;;;;13.07;6.32;;;;;;;14.82;93.66;101586.38;5068677;28;20165;-70
2022/10/30 01:21:30;;;;;;;17.38;7.00;;;;;;;14.85;93.67;101594.84;5070370;28;20043;-70
2022/10/30 01:24:13;;;;;;;14.68;7.75;;;;;;;14.83;93.85;101590.75;5070224;28;20505;-70
2022/10/30 01:26:53;;;;;;;20.08;7.13;;;;;;;14.81;94.16;101604.38;5070442;28;20115;-70
2022/10/30 01:29:24;;;;;;;22.80;9.02;;;;;;;14.75;94.32;101598.97;5070257;28;20021;-70
2022/10/30 01:32:08;;;;;;;18.37;7.53;;;;;;;14.74;94.46;101605.38;5087125;28;20048;-70
2022/10/30 01:34:55;;;;;;;18.10;7.80;;;;;;;14.69;94.58;101612.19;5090090;28;20365;-70
2022/10/30 01:37:32;;;;;;;15.45;6.65;;;;;;;14.66;94.62;101606.41;5089785;28;20028;-70
2022/10/30 01:40:04;;;;;;;17.65;6.10;;;;;;;14.60;94.66;101599.19;5089896;28;20547;-70
2022/10/30 01:42:54;;;;;;;17.67;8.23;;;;;;;14.61;95.02;101601.66;5089681;28;20097;-70
2022/10/30 01:45:22;;;;;;;18.23;7.40;;;;;;;14.58;94.72;101604.75;5089610;28;20069;-70
2022/10/30 01:48:09;;;;;;;15.60;6.80;;;;;;;14.56;95.36;101604.13;5089822;28;20035;-70
2022/10/30 01:50:47;;;;;;;18.98;7.70;;;;;;;14.50;95.53;101604.91;5089715;28;20030;-70
2022/10/30 01:53:30;;;;;;;19.63;8.98;;;;;;;14.52;95.49;101613.59;5089515;28;20032;-70
2022/10/30 01:56:43;;;;;;;13.60;6.78;;;;;;;14.51;95.72;101605.75;5089366;28;20036;-70
2022/10/30 01:59:41;;;;;;;18.00;7.78;;;;;;;14.48;96.20;101607.78;5075608;28;20497;-70
2022/10/30 02:02:07;;;;;;;18.17;8.43;;;;;;;14.47;95.79;101600.78;5086234;28;20036;-70
2022/10/30 02:04:33;;;;;;;16.65;8.98;;;;;;;14.45;95.76;101596.66;5089552;28;20094;-70
2022/10/30 02:06:59;;;;;;;18.73;8.50;;;;;;;14.47;95.75;101599.97;5089397;28;20487;-70
2022/10/30 02:09:25;;;;;;;15.88;7.03;;;;;;;14.41;96.11;101601.59;5089462;28;20036;-70
2022/10/30 02:11:52;;;;;;;17.80;7.70;;;;;;;14.42;96.40;101611.31;5089078;28;20123;-70
2022/10/30 02:14:23;;;;;;;14.68;7.40;;;;;;;14.43;96.84;101612.13;5089426;28;20024;-70
2022/10/30 02:16:51;;;;;;;12.02;6.88;;;;;;;14.40;96.70;101610.66;5089345;28;20055;-70
2022/10/30 02:19:16;;;;;;;12.90;6.65;;;;;;;14.40;96.80;101621.41;5089284;28;20441;-70
2022/10/30 02:21:42;;;;;;;14.45;7.38;;;;;;;14.40;96.49;101623.28;5089368;28;20118;-70
2022/10/30 02:24:07;;;;;;;15.07;6.68;;;;;;;14.36;96.68;101624.72;5088702;28;20043;-74
2022/10/30 02:26:32;;;;;;;18.63;6.72;;;;;;;14.33;96.87;101620.59;5088922;28;20044;-74
2022/10/30 02:28:58;;;;;;;12.32;6.53;;;;;;;14.29;96.58;101607.78;5089007;28;20064;-73
2022/10/30 02:31:23;;;;;;;15.98;7.93;;;;;;;14.31;96.91;101616.44;5088833;28;20075;-73
2022/10/30 02:33:49;;;;;;;15.35;7.85;;;;;;;14.28;97.19;101620.38;5088754;28;20368;-73
2022/10/30 02:36:14;;;;;;;15.43;8.20;;;;;;;14.26;97.28;101630.47;5088710;28;20744;-73
2022/10/30 02:38:40;;;;;;;19.67;7.22;;;;;;;14.21;97.63;101628.38;5070562;28;20032;-73
2022/10/30 02:41:05;;;;;;;22.52;7.25;;;;;;;14.14;97.77;101616.78;5088936;28;20028;-73
2022/10/30 02:43:31;;;;;;;14.02;6.70;;;;;;;14.14;97.65;101630.19;5088587;28;20028;-74
2022/10/30 02:45:56;;;;;;;14.20;6.55;;;;;;;14.14;97.77;101626.69;5088723;28;20032;-73
2022/10/30 02:48:21;;;;;;;13.90;7.72;;;;;;;14.06;98.26;101614.28;5088830;28;20035;-74
2022/10/30 02:50:47;;;;;;;13.88;6.93;;;;;;;14.09;98.01;101623.78;5088587;28;20444;-73
2022/10/30 02:53:12;;;;;;;14.90;7.05;;;;;;;14.03;98.41;101620.88;5071126;28;20492;-73
2022/10/30 02:55:37;;;;;;;13.45;6.00;;;;;;;13.99;98.64;101616.13;5088307;28;20498;-73
2022/10/30 02:58:03;;;;;;;19.08;7.38;;;;;;;13.99;98.51;101627.69;5088707;28;20056;-73
2022/10/30 03:00:28;;;;;;;16.05;7.55;;;;;;;13.99;98.97;101627.69;5088633;28;20043;-73
2022/10/30 03:02:55;;;;;;;17.17;7.43;;;;;;;14.01;98.93;101625.63;5092437;28;20017;-74
2022/10/30 03:05:20;;;;;;;17.85;6.80;;;;;;;13.98;99.52;101626.03;5092660;28;20537;-73
2022/10/30 03:07:47;;;;;;;15.88;6.97;;;;;;;14.00;99.01;101625.84;5092455;28;20032;-76
2022/10/30 03:10:13;;;;;;;15.10;6.60;;;;;;;13.94;99.14;101616.72;5092292;28;20028;-74
2022/10/30 03:12:38;;;;;;;14.27;7.63;;;;;;;13.84;99.04;101602.03;5092364;28;20036;-74
2022/10/30 03:15:04;;;;;;;14.52;7.07;;;;;;;13.92;99.21;101618.78;5092128;28;20027;-74
2022/10/30 03:17:29;;;;;;;15.40;6.43;;;;;;;13.90;99.19;101609.28;5092359;28;20085;-74
2022/10/30 03:19:55;;;;;;;16.25;6.85;;;;;;;13.91;99.54;101617.13;5092305;28;20035;-73
2022/10/30 03:22:20;;;;;;;19.75;7.55;;;;;;;13.89;99.50;101613.00;5092261;28;20137;-74
2022/10/30 03:24:45;;;;;;;14.13;6.60;;;;;;;13.91;99.72;101609.09;5074315;28;20089;-74
2022/10/30 03:27:11;;;;;;;20.63;8.10;;;;;;;13.88;99.71;101606.78;5091786;28;20036;-74
2022/10/30 03:29:36;;;;;;;17.30;7.38;;;;;;;13.80;99.72;101604.28;5092259;28;20119;-74
2022/10/30 03:32:02;;;;;;;15.57;7.95;;;;;;;13.84;100.00;101610.91;5091804;28;20052;-74
2022/10/30 03:34:27;;;;;;;13.95;6.93;;;;;;;13.88;100.00;101612.16;5092037;28;20031;-74
2022/10/30 03:36:52;;;;;;;18.45;7.25;;;;;;;13.87;100.00;101610.50;5091929;28;20163;-74
2022/10/30 03:39:18;;;;;;;16.65;6.68;;;;;;;13.89;99.77;101616.50;5091345;28;20057;-74
2022/10/30 03:41:43;;;;;;;14.20;6.57;;;;;;;13.84;100.00;101610.91;5091635;28;20036;-74
2022/10/30 03:44:08;;;;;;;19.23;7.10;;;;;;;13.88;100.00;101611.34;5091711;28;20035;-74
2022/10/30 03:46:34;;;;;;;16.58;7.45;;;;;;;13.86;100.00;101622.28;5073309;28;20517;-74
2022/10/30 03:49:00;;;;;;;17.42;7.18;;;;;;;13.87;100.00;101613.19;5091920;28;20040;-74
2022/10/30 03:51:25;;;;;;;17.42;7.35;;;;;;;13.90;100.00;101611.97;5091708;28;20574;-74
2022/10/30 03:53:50;;;;;;;15.20;6.88;;;;;;;13.88;100.00;101619.38;5091484;28;20016;-74
2022/10/30 03:56:16;;;;;;;14.50;5.97;;;;;;;13.91;100.00;101618.97;5091652;28;20499;-74
2022/10/30 03:58:41;;;;;;;17.58;6.75;;;;;;;13.86;100.00;101608.88;5091607;28;20024;-74
2022/10/30 04:01:07;;;;;;;20.77;7.32;;;;;;;13.87;100.00;101615.88;5073412;28;20088;-74
2022/10/30 04:03:33;;;;;;;16.88;7.00;;;;;;;13.88;100.00;101624.75;5091152;28;20031;-74
2022/10/30 04:05:58;;;;;;;17.80;8.15;;;;;;;13.87;100.00;101621.22;5091214;28;20482;-74
2022/10/30 04:08:24;;;;;;;13.60;6.70;;;;;;;13.83;100.00;101625.31;5091379;28;20039;-74
2022/10/30 04:10:49;;;;;;;18.42;7.78;;;;;;;13.83;100.00;101630.69;5073548;28;20501;-73
2022/10/30 04:13:16;;;;;;;12.43;6.55;;;;;;;13.79;100.00;101626.78;5090643;28;20020;-74
2022/10/30 04:15:42;;;;;;;15.07;7.57;;;;;;;13.80;100.00;101634.59;5090915;28;20053;-74
2022/10/30 04:18:10;;;;;;;14.50;6.68;;;;;;;13.77;100.00;101629.63;5073130;28;20121;-74
2022/10/30 04:20:36;;;;;;;17.60;7.78;;;;;;;13.72;100.00;101629.41;5073113;28;20063;-74
2022/10/30 04:23:04;;;;;;;13.48;6.40;;;;;;;13.67;100.00;101626.50;5091057;28;20067;-74
2022/10/30 04:25:30;;;;;;;11.45;6.03;;;;;;;13.67;100.00;101642.56;5090760;28;20020;-74
2022/10/30 04:27:55;;;;;;;16.33;7.05;;;;;;;13.65;100.00;101639.28;5090587;28;20028;-73
2022/10/30 04:30:24;;;;;;;12.27;6.40;;;;;;;13.54;100.00;101635.28;5087556;28;20060;-74
2022/10/30 04:32:56;;;;;;;20.35;6.63;;;;;;;13.45;100.00;101635.66;5069628;28;20113;-74
2022/10/30 04:35:27;;;;;;;15.60;7.45;;;;;;;13.29;100.00;101629.56;5078950;28;20062;-74
2022/10/30 04:37:56;;;;;;;12.15;6.32;;;;;;;13.19;100.00;101625.53;5083579;28;20085;-74
2022/10/30 04:40:24;;;;;;;14.77;6.55;;;;;;;13.18;100.00;101629.22;5074246;28;20025;-70
2022/10/30 04:42:49;;;;;;;13.43;7.47;;;;;;;13.16;100.00;101630.25;5068126;28;20024;-70
2022/10/30 04:45:15;;;;;;;19.45;9.05;;;;;;;13.12;100.00;101622.81;5072355;28;20089;-70
2022/10/30 04:47:40;;;;;;;14.63;6.78;;;;;;;13.16;100.00;101637.47;5072569;28;20039;-70
2022/10/30 04:50:06;;;;;;;18.90;8.13;;;;;;;13.10;100.00;101619.50;5090517;28;20063;-70
2022/10/30 04:52:31;;;;;;;12.13;6.68;;;;;;;13.08;100.00;101618.88;5072665;28;20044;-70
2022/10/30 04:54:56;;;;;;;16.10;6.75;;;;;;;13.09;100.00;101617.84;5090512;28;20024;-70
2022/10/30 04:57:22;;;;;;;16.52;6.57;;;;;;;13.03;100.00;101619.44;5090347;28;20035;-70
2022/10/30 04:59:47;;;;;;;17.48;6.90;;;;;;;13.00;100.00;101611.81;5090479;28;20794;-70
2022/10/30 05:02:13;;;;;;;16.73;7.25;;;;;;;12.99;100.00;101611.97;5090368;28;20487;-70
2022/10/30 05:04:38;;;;;;;14.55;7.15;;;;;;;12.99;100.00;101607.44;5090272;28;20050;-70
2022/10/30 05:07:03;;;;;;;15.23;6.90;;;;;;;13.01;100.00;101594.72;5089765;28;20058;-70
2022/10/30 05:09:29;;;;;;;16.23;8.88;;;;;;;12.94;100.00;101583.09;5090242;28;20079;-70
2022/10/30 05:11:55;;;;;;;15.13;6.82;;;;;;;12.99;100.00;101586.03;5090087;28;20032;-69
2022/10/30 05:14:20;;;;;;;19.58;7.95;;;;;;;12.99;100.00;101588.72;5072330;28;20028;-70
2022/10/30 05:16:45;;;;;;;15.48;7.72;;;;;;;12.98;100.00;101586.25;5090054;28;20436;-70
2022/10/30 05:19:11;;;;;;;15.48;8.65;;;;;;;12.95;100.00;101587.47;5071998;28;20621;-70
2022/10/30 05:21:36;;;;;;;17.50;7.80;;;;;;;12.99;100.00;101603.94;5089824;28;20510;-70
2022/10/30 05:24:01;;;;;;;20.27;8.85;;;;;;;12.97;100.00;101598.81;5071496;28;20505;-70
2022/10/30 05:26:27;;;;;;;13.88;7.57;;;;;;;12.97;100.00;101598.81;5089417;28;20155;-70
2022/10/30 05:28:52;;;;;;;15.02;7.18;;;;;;;12.97;100.00;101603.31;5089734;28;20070;-70
2022/10/30 05:31:17;;;;;;;22.77;8.43;;;;;;;12.98;100.00;101597.78;5088988;28;20067;-70
2022/10/30 05:33:43;;;;;;;16.27;7.68;;;;;;;12.85;100.00;101595.81;5089578;28;20028;-70
2022/10/30 05:36:08;;;;;;;13.93;7.20;;;;;;;12.79;100.00;101601.13;5054971;28;20032;-70
2022/10/30 05:38:34;;;;;;;16.98;7.60;;;;;;;12.73;100.00;101600.03;5089710;28;20024;-70
2022/10/30 05:40:59;;;;;;;15.25;7.65;;;;;;;12.68;100.00;101605.13;5089619;28;20101;-70
2022/10/30 05:43:24;;;;;;;17.15;8.50;;;;;;;12.65;100.00;101595.66;5071709;28;20162;-70
2022/10/30 05:45:50;;;;;;;19.73;8.77;;;;;;;12.60;100.00;101595.41;5088669;28;20118;-70
2022/10/30 05:48:15;;;;;;;17.40;8.93;;;;;;;12.64;100.00;101607.38;5071471;28;20035;-70
2022/10/30 05:50:41;;;;;;;15.70;7.40;;;;;;;12.61;100.00;101613.09;5089426;28;20127;-70
2022/10/30 05:53:06;;;;;;;16.52;8.50;;;;;;;12.48;100.00;101615.66;5089286;28;20173;-70
2022/10/30 05:55:32;;;;;;;17.20;7.45;;;;;;;12.36;100.00;101607.28;5071402;28;20386;-70
2022/10/30 05:58:03;;;;;;;17.90;8.90;;;;;;;12.25;100.00;101616.63;5089414;28;20116;-70
2022/10/30 06:00:31;;;;;;;21.27;8.38;;;;;;;12.19;100.00;101622.75;5089323;28;20027;-70
2022/10/30 06:03:05;;;;;;;12.60;7.20;;;;;;;12.16;100.00;101622.31;5089398;28;20554;-70
2022/10/30 06:05:32;;;;;;;13.35;7.38;;;;;;;12.04;100.00;101619.28;5089270;28;20031;-69
2022/10/30 06:07:58;;;;;;;16.30;7.10;;;;;;;11.97;100.00;101608.53;5089324;28;20379;-70
2022/10/30 06:10:24;;;;;;;16.85;7.60;;;;;;;11.95;100.00;101620.41;5089195;28;20028;-70
2022/10/30 06:12:53;;;;;;;16.20;7.53;;;;;;;11.94;100.00;101619.56;5089033;28;20032;-70
2022/10/30 06:15:19;;;;;;;16.38;8.52;;;;;;;11.91;100.00;101614.59;5088538;28;20029;-70
2022/10/30 06:17:45;;;;;;;18.38;8.25;;;;;;;11.80;100.00;101613.19;5089033;28;20052;-70
2022/10/30 06:20:10;;;;;;;16.48;7.00;;;;;;;11.78;100.00;101617.06;5089086;28;20071;-70
2022/10/30 06:22:36;;;;;;;14.98;7.00;;;;;;;11.76;100.00;101621.75;5082605;28;20025;-70
2022/10/30 06:25:01;;;;;;;16.80;7.63;;;;;;;11.71;100.00;101624.16;5069202;28;20081;-70
2022/10/30 06:27:27;;;;;;;17.20;6.90;;;;;;;11.68;100.00;101619.19;5069617;28;20473;-70
2022/10/30 06:29:53;;;;;;;16.13;7.10;;;;;;;11.64;100.00;101629.44;5070826;28;20035;-69
2022/10/30 06:32:20;;;;;;;13.90;6.35;;;;;;;11.56;100.00;101618.84;5088202;28;20048;-70
2022/10/30 06:34:45;;;;;;;17.30;8.88;;;;;;;11.55;100.00;101618.00;5088622;28;20074;-70
2022/10/30 06:37:10;;;;;;;19.85;7.93;;;;;;;11.50;100.00;101607.06;5074559;28;20028;-70
2022/10/30 06:39:36;;;;;;;22.63;8.57;;;;;;;11.55;100.00;101607.31;5092729;28;20043;-70
2022/10/30 06:42:01;;;;;;;16.00;7.75;;;;;;;11.51;100.00;101606.03;5074776;28;20035;-70
2022/10/30 06:44:26;;;;;;;21.15;8.27;;;;;;;11.58;100.00;101611.44;5092630;28;21002;-70
2022/10/30 06:46:52;;;;;;;16.67;8.63;;;;;;;11.58;100.00;101603.44;5074435;28;20498;-70
2022/10/30 06:49:18;;;;;;;26.58;9.88;;;;;;;11.60;100.00;101602.22;5092406;28;20112;-70
2022/10/30 06:51:43;;;;;;;14.00;7.20;;;;;;;11.58;100.00;101606.09;5092979;28;20056;-69
2022/10/30 06:54:09;;;;;;;17.35;9.38;;;;;;;11.61;100.00;101603.09;5092458;28;20032;-70
2022/10/30 06:56:34;;;;;;;17.17;9.50;;;;;;;11.61;100.00;101603.91;5092752;28;20059;-70
2022/10/30 06:58:59;;;;;;;15.32;9.32;;;;;;;11.62;100.00;101605.56;5092685;28;20356;-70
2022/10/30 07:01:25;;;;;;;27.38;8.63;;;;;;;11.58;100.00;101603.44;5092337;28;20047;-71
2022/10/30 07:03:50;;;;;;;19.50;8.15;;;;;;;11.58;100.00;101614.13;5092264;28;20024;-70
2022/10/30 07:06:15;;;;;;;19.13;8.35;;;;;;;11.58;100.00;101608.78;5092084;28;20046;-70
2022/10/30 07:08:41;;;;;;;15.27;6.72;;;;;;;11.65;100.00;101604.34;5074455;28;20048;-70
2022/10/30 07:11:06;;;;;;;17.98;8.48;;;;;;;11.65;100.00;101603.53;5092096;28;20028;-71
2022/10/30 07:13:31;;;;;;;16.90;8.98;;;;;;;11.64;100.00;101610.72;5074556;28;20436;-70
2022/10/30 07:15:58;;;;;;;16.10;7.45;;;;;;;11.65;100.00;101609.69;5092409;28;20065;-70
2022/10/30 07:18:23;;;;;;;18.40;8.10;;;;;;;11.67;100.00;101602.34;5092239;28;20042;-69
2022/10/30 07:20:54;;;;;;;17.80;8.00;;;;;;;11.68;100.00;101592.47;5073619;28;20122;-69
2022/10/30 07:23:19;;;;;;;18.80;8.70;;;;;;;11.75;100.00;101593.38;5073561;28;20554;-69
2022/10/30 07:25:44;;;;;;;18.05;8.80;;;;;;;11.81;100.00;101595.31;5092191;28;20028;-69
2022/10/30 07:28:10;;;;;;;18.98;9.48;;;;;;;11.91;100.00;101597.72;5091564;28;20085;-70
2022/10/30 07:30:35;;;;;;;16.90;9.55;;;;;;;12.02;100.00;101595.38;5073857;28;20150;-69
2022/10/30 07:33:03;;;;;;;17.13;9.23;;;;;;;12.17;100.00;101591.88;5091848;28;20032;-68
2022/10/30 07:35:30;;;;;;;18.15;9.35;;;;;;;12.29;100.00;101595.72;5091529;28;20055;-72
2022/10/30 07:37:55;;;;;;;29.92;10.07;;;;;;;12.37;100.00;101595.59;5091191;28;20103;-68
2022/10/30 07:40:21;;;;;;;21.27;11.18;;;;;;;12.51;100.00;101601.88;5091895;28;20180;-69
2022/10/30 07:42:47;;;;;;;17.02;9.32;;;;;;;12.57;100.00;101598.44;5091627;28;20024;-68
2022/10/30 07:45:12;;;;;;;17.83;8.70;;;;;;;12.61;100.00;101599.72;5091749;28;20035;-68
2022/10/30 07:47:42;;;;;;;15.48;9.38;;;;;;;12.64;100.00;101598.50;5091176;28;20407;-69
2022/10/30 07:50:08;;;;;;;19.05;9.60;;;;;;;12.65;100.00;101601.00;5091031;28;20073;-68
2022/10/30 07:52:33;;;;;;;19.60;8.80;;;;;;;12.79;100.00;101601.13;5091693;28;20040;-68
2022/10/30 07:54:58;;;;;;;23.20;9.48;;;;;;;12.87;100.00;101591.09;5091727;28;20085;-68
2022/10/30 07:57:24;;;;;;;18.85;8.77;;;;;;;13.05;100.00;101597.84;5073602;28;20063;-69
2022/10/30 07:59:49;;;;;;;20.83;9.15;;;;;;;13.19;100.00;101596.91;5091507;28;20055;-68
2022/10/30 08:02:14;;;;;;;18.02;9.32;;;;;;;13.23;100.00;101586.59;5091523;28;20031;-69
2022/10/30 08:04:39;;;;;;;19.58;9.18;;;;;;;13.34;100.00;101597.66;5073461;28;20036;-68
2022/10/30 08:07:05;;;;;;;17.30;9.27;;;;;;;13.40;100.00;101604.06;5091135;28;20046;-68
2022/10/30 08:09:30;;;;;;;20.58;9.05;;;;;;;13.39;100.00;101589.03;5091595;28;20479;-69
2022/10/30 08:11:55;;;;;;;21.67;10.60;;;;;;;13.44;100.00;101594.63;5090745;28;20364;-69
2022/10/30 08:14:21;;;;;;;15.75;9.82;;;;;;;13.59;100.00;101606.03;5090741;28;20867;-69
2022/10/30 08:16:46;;;;;;;21.45;12.15;;;;;;;13.71;100.00;101609.00;5090957;28;20032;-69
2022/10/30 08:19:12;;;;;;;20.02;10.20;;;;;;;13.85;100.00;101606.38;5091032;28;20427;-69
2022/10/30 08:21:37;;;;;;;19.98;9.88;;;;;;;13.93;100.00;101606.19;5090828;28;20093;-69
2022/10/30 08:24:02;;;;;;;22.05;12.18;;;;;;;14.05;100.00;101607.28;5073357;28;20051;-69
2022/10/30 08:26:28;;;;;;;20.27;9.88;;;;;;;14.09;100.00;101586.25;5090869;28;20491;-69
2022/10/30 08:28:53;;;;;;;19.55;9.15;;;;;;;14.18;100.00;101596.59;5090740;28;20051;-69
2022/10/30 08:31:18;;;;;;;22.77;11.75;;;;;;;14.22;100.00;101589.78;5090871;28;20441;-69
2022/10/30 08:33:44;;;;;;;20.77;11.13;;;;;;;14.28;100.00;101581.94;5090753;28;20445;-68
2022/10/30 08:36:09;;;;;;;19.60;10.27;;;;;;;14.36;100.00;101579.09;5072424;28;20071;-68
2022/10/30 08:38:34;;;;;;;21.10;11.57;;;;;;;14.42;100.00;101581.78;5090709;28;20048;-69
2022/10/30 08:41:00;;;;;;;16.92;9.02;;;;;;;14.43;100.00;101583.41;5090308;28;20024;-69
2022/10/30 08:43:26;;;;;;;19.73;11.48;;;;;;;14.47;100.00;101591.91;5072702;28;20085;-69
2022/10/30 08:45:51;;;;;;;21.67;11.40;;;;;;;14.46;100.00;101584.88;5090799;28;20087;-68
2022/10/30 08:48:16;;;;;;;22.20;10.45;;;;;;;14.68;100.00;101601.66;5072705;28;20039;-68
2022/10/30 08:50:42;;;;;;;19.60;11.30;;;;;;;14.78;100.00;101602.09;5090247;28;20436;-68
2022/10/30 08:53:11;;;;;;;28.00;11.80;;;;;;;14.87;100.00;101595.47;5090143;28;20510;-69
2022/10/30 08:55:36;;;;;;;20.63;10.98;;;;;;;14.94;100.00;101591.97;5090500;28;20024;-69
2022/10/30 08:58:02;;;;;;;20.95;11.23;;;;;;;14.96;100.00;101579.13;5089649;28;20092;-68
2022/10/30 09:00:28;;;;;;;20.73;11.40;;;;;;;15.06;100.00;101588.47;5090021;28;20536;-69
2022/10/30 09:02:53;;;;;;;21.38;11.88;;;;;;;15.17;100.00;101595.06;5090343;28;20028;-68
2022/10/30 09:05:19;;;;;;;22.48;10.57;;;;;;;15.24;100.00;101590.47;5090197;28;20026;-69
2022/10/30 09:07:46;;;;;;;21.13;11.73;;;;;;;15.45;100.00;101596.63;5071856;28;20055;-81
2022/10/30 09:10:12;;;;;;;20.70;11.45;;;;;;;15.58;99.77;101593.91;5090351;28;20405;-69
2022/10/30 09:12:38;;;;;;;19.92;11.48;;;;;;;15.74;99.81;101590.78;5089717;28;20641;-69
2022/10/30 09:15:04;;;;;;;21.95;10.52;;;;;;;15.83;97.34;101595.94;5090044;28;20039;-69
2022/10/30 09:17:29;;;;;;;21.83;10.45;;;;;;;15.85;95.83;101589.31;5089905;28;20032;-68
2022/10/30 09:19:55;;;;;;;29.25;12.00;;;;;;;16.02;96.74;101589.63;5090014;28;20038;-70
2022/10/30 09:22:20;;;;;;;21.48;12.65;;;;;;;16.13;97.79;101590.81;5089746;28;20065;-69
2022/10/30 09:24:45;;;;;;;21.02;10.82;;;;;;;16.23;96.61;101583.09;5089930;28;20031;-69
2022/10/30 09:27:11;;;;;;;17.23;10.30;;;;;;;16.31;94.37;101587.41;5089495;28;20028;-69
2022/10/30 09:29:36;;;;;;;20.20;11.15;;;;;;;16.39;93.56;101582.59;5089946;28;20032;-69
2022/10/30 09:32:07;;;;;;;22.55;12.27;;;;;;;16.54;94.53;101578.78;5089423;28;20044;-69
2022/10/30 09:34:32;;;;;;;21.27;11.07;;;;;;;16.70;94.74;101578.22;5089979;28;20110;-69
2022/10/30 09:36:58;;;;;;;23.25;11.98;;;;;;;16.75;92.69;101558.72;5089628;28;20126;-69
2022/10/30 09:39:24;;;;;;;20.13;10.90;;;;;;;16.89;91.19;101571.03;5089212;28;21028;-69
2022/10/30 09:41:55;;;;;;;23.85;12.07;;;;;;;16.99;90.53;101573.25;5089505;28;20048;-69
2022/10/30 09:44:32;;;;;;;23.33;10.88;;;;;;;17.09;91.42;101570.88;5071548;28;20053;-68
2022/10/30 09:47:16;;;;;;;22.48;9.93;;;;;;;17.24;89.86;101573.22;5089306;28;20039;-68
2022/10/30 09:49:48;;;;;;;24.38;13.00;;;;;;;17.41;89.35;101581.53;5071223;28;20437;-69
2022/10/30 09:52:20;;;;;;;21.90;13.18;;;;;;;17.55;89.48;101583.03;5089162;28;20039;-69
2022/10/30 09:55:30;;;;;;;21.50;10.98;;;;;;;17.65;89.49;101588.72;5089280;28;20028;-69
2022/10/30 09:58:31;;;;;;;24.55;12.07;;;;;;;17.74;87.14;101587.38;5044164;28;20043;-69
2022/10/30 10:01:20;;;;;;;25.65;11.30;;;;;;;17.89;89.38;101589.72;5024957;28;20040;-69
2022/10/30 10:04:06;;;;;;;18.60;10.43;;;;;;;17.96;89.03;101600.41;5089477;28;20425;-69
2022/10/30 10:06:33;;;;;;;16.98;10.95;;;;;;;17.83;86.97;101606.00;5088401;28;20625;-69
2022/10/30 10:09:06;;;;;;;29.25;12.00;;;;;;;17.77;87.23;101615.78;5088970;28;20032;-69
2022/10/30 10:11:35;;;;;;;22.52;12.25;;;;;;;17.64;88.64;101605.97;5089243;28;20024;-69
2022/10/30 10:14:17;;;;;;;21.00;10.55;;;;;;;17.71;90.10;101606.72;5088894;28;20020;-69
2022/10/30 10:16:47;;;;;;;21.08;11.07;;;;;;;17.70;88.81;101607.75;5071121;28;20925;-69
2022/10/30 10:19:29;;;;;;;23.80;11.32;;;;;;;17.75;88.50;101607.09;5088801;28;20036;-69
2022/10/30 10:21:55;;;;;;;;;;;;;;;17.81;91.04;101610.78;5071374;28;20418;-69
2022/10/30 10:24:30;;;;;;;26.85;11.95;;;;;;;17.75;88.62;101607.09;5071115;28;19927;-69
2022/10/30 10:26:58;;;;;;;18.42;11.25;;;;;;;17.75;88.54;101602.50;5088872;28;20533;-69
2022/10/30 10:29:42;;;;;;;21.77;11.75;;;;;;;17.78;87.89;101592.31;5088943;28;20028;-69
2022/10/30 10:32:27;;;;;;;21.55;11.25;;;;;;;17.86;89.48;101587.47;5088678;28;20055;-69
2022/10/30 10:36:03;;;;;;;18.17;9.98;;;;;;;17.95;90.33;101588.81;5089099;28;20032;-69
2022/10/30 10:38:43;;;;;;;18.48;7.90;;;;;;;17.99;87.15;101597.25;4949552;28;20077;-72
2022/10/30 10:41:27;;;;;;;18.40;9.25;;;;;;;18.09;88.58;101592.16;5076912;28;20548;-72
2022/10/30 10:44:23;;;;;;;25.77;11.27;;;;;;;18.26;90.17;101600.44;5088181;28;20016;-73
2022/10/30 10:47:13;;;;;;;21.90;10.40;;;;;;;18.25;88.04;101595.25;5087792;28;20039;-73
2022/10/30 10:49:54;;;;;;;18.58;8.43;;;;;;;18.26;88.16;101581.53;5086918;28;20055;-74
2022/10/30 10:52:24;;;;;;;17.23;7.45;;;;;;;18.28;87.54;101579.41;5086587;28;20044;-73
2022/10/30 10:54:54;;;;;;;19.55;10.25;;;;;;;18.34;84.83;101586.59;5086577;28;20039;-73
2022/10/30 10:57:31;;;;;;;19.05;9.13;;;;;;;18.37;86.28;101579.94;5087078;28;20111;-73
2022/10/30 11:00:18;;;;;;;22.02;9.10;;;;;;;18.41;85.98;101589.19;5088168;28;20102;-72
2022/10/30 11:03:03;;;;;;;19.15;8.65;;;;;;;18.47;86.65;101585.59;5074852;28;20028;-73
2022/10/30 11:05:40;;;;;;;19.02;7.55;;;;;;;18.57;85.28;101588.53;5088639;28;20378;-72
2022/10/30 11:08:14;;;;;;;15.48;8.07;;;;;;;18.61;84.04;101581.63;5088282;28;20479;-72
2022/10/30 11:10:39;;;;;;;15.32;7.32;;;;;;;18.69;83.66;101580.47;5088079;28;20574;-72
2022/10/30 11:13:05;;;;;;;14.68;7.22;;;;;;;18.79;83.21;101583.44;5088319;28;20016;-72
2022/10/30 11:15:40;;;;;;;13.63;7.15;;;;;;;18.85;83.61;101583.56;5088447;28;20419;-72
2022/10/30 11:18:08;;;;;;;19.55;8.27;;;;;;;18.88;83.08;101572.28;5088104;28;20089;-72
2022/10/30 11:20:37;;;;;;;18.88;7.35;;;;;;;18.89;83.12;101569.34;5088401;28;20063;-72